sensor_id;sensor_type;location;lat;lon;timestamp;P1;durP1;ratioP1;P2;durP2;ratioP2
74528;SDS011;63009;52.584;5.932;2023-04-12T00:00:47;8.70;;;1.90;;
74528;SDS011;63009;52.584;5.932;2023-04-12T00:03:14;8.90;;;2.00;;
74528;SDS011;63009;52.584;5.932;2023-04-12T00:05:44;6.53;;;1.48;;
74528;SDS011;63009;52.584;5.932;2023-04-12T00:08:11;8.48;;;1.95;;
74528;SDS011;63009;52.584;5.932;2023-04-12T00:10:36;9.93;;;1.90;;
74528;SDS011;63009;52.584;5.932;2023-04-12T00:13:02;8.82;;;2.00;;
74528;SDS011;63009;52.584;5.932;2023-04-12T00:15:27;8.48;;;1.60;;
74528;SDS011;63009;52.584;5.932;2023-04-12T00:17:52;9.23;;;2.20;;
74528;SDS011;63009;52.584;5.932;2023-04-12T00:20:18;6.93;;;1.63;;
74528;SDS011;63009;52.584;5.932;2023-04-12T00:22:43;10.27;;;2.20;;
74528;SDS011;63009;52.584;5.932;2023-04-12T00:25:09;6.40;;;1.75;;
74528;SDS011;63009;52.584;5.932;2023-04-12T00:27:35;6.13;;;1.60;;
74528;SDS011;63009;52.584;5.932;2023-04-12T00:30:00;10.18;;;1.80;;
74528;SDS011;63009;52.584;5.932;2023-04-12T00:32:27;8.55;;;1.55;;
74528;SDS011;63009;52.584;5.932;2023-04-12T00:34:53;9.10;;;1.90;;
74528;SDS011;63009;52.584;5.932;2023-04-12T00:37:18;7.63;;;2.57;;
74528;SDS011;63009;52.584;5.932;2023-04-12T00:39:43;6.23;;;1.90;;
74528;SDS011;63009;52.584;5.932;2023-04-12T00:42:08;7.30;;;1.65;;
74528;SDS011;63009;52.584;5.932;2023-04-12T00:44:34;8.53;;;2.13;;
74528;SDS011;63009;52.584;5.932;2023-04-12T00:47:00;10.38;;;1.95;;
74528;SDS011;63009;52.584;5.932;2023-04-12T00:49:27;9.35;;;2.00;;
74528;SDS011;63009;52.584;5.932;2023-04-12T00:51:58;10.05;;;2.20;;
74528;SDS011;63009;52.584;5.932;2023-04-12T00:54:28;6.65;;;1.92;;
74528;SDS011;63009;52.584;5.932;2023-04-12T00:56:55;8.65;;;1.85;;
74528;SDS011;63009;52.584;5.932;2023-04-12T00:59:23;9.90;;;2.05;;
74528;SDS011;63009;52.584;5.932;2023-04-12T01:01:48;6.60;;;1.85;;
74528;SDS011;63009;52.584;5.932;2023-04-12T01:04:14;7.95;;;2.15;;
74528;SDS011;63009;52.584;5.932;2023-04-12T01:06:57;6.45;;;2.15;;
74528;SDS011;63009;52.584;5.932;2023-04-12T01:15:01;10.25;;;3.05;;
74528;SDS011;63009;52.584;5.932;2023-04-12T01:17:37;9.02;;;2.25;;
74528;SDS011;63009;52.584;5.932;2023-04-12T01:20:35;8.52;;;2.13;;
74528;SDS011;63009;52.584;5.932;2023-04-12T01:25:51;10.68;;;2.28;;
74528;SDS011;63009;52.584;5.932;2023-04-12T01:28:31;16.80;;;2.70;;
74528;SDS011;63009;52.584;5.932;2023-04-12T01:30:59;7.28;;;2.25;;
74528;SDS011;63009;52.584;5.932;2023-04-12T01:33:26;6.22;;;1.73;;
74528;SDS011;63009;52.584;5.932;2023-04-12T01:38:21;9.80;;;1.83;;
74528;SDS011;63009;52.584;5.932;2023-04-12T01:40:48;6.57;;;1.77;;
74528;SDS011;63009;52.584;5.932;2023-04-12T01:43:13;8.95;;;1.73;;
74528;SDS011;63009;52.584;5.932;2023-04-12T01:45:42;8.07;;;2.03;;
74528;SDS011;63009;52.584;5.932;2023-04-12T01:48:08;6.82;;;2.10;;
74528;SDS011;63009;52.584;5.932;2023-04-12T01:50:49;8.38;;;2.45;;
74528;SDS011;63009;52.584;5.932;2023-04-12T01:53:22;8.43;;;2.30;;
74528;SDS011;63009;52.584;5.932;2023-04-12T01:55:49;7.47;;;2.15;;
74528;SDS011;63009;52.584;5.932;2023-04-12T01:58:21;8.25;;;2.25;;
74528;SDS011;63009;52.584;5.932;2023-04-12T02:00:48;9.52;;;2.20;;
74528;SDS011;63009;52.584;5.932;2023-04-12T02:03:17;10.85;;;2.45;;
74528;SDS011;63009;52.584;5.932;2023-04-12T02:05:44;11.80;;;2.80;;
74528;SDS011;63009;52.584;5.932;2023-04-12T02:08:09;9.35;;;2.47;;
74528;SDS011;63009;52.584;5.932;2023-04-12T02:10:35;10.07;;;2.53;;
74528;SDS011;63009;52.584;5.932;2023-04-12T02:13:03;10.23;;;2.17;;
74528;SDS011;63009;52.584;5.932;2023-04-12T02:15:29;7.88;;;2.15;;
74528;SDS011;63009;52.584;5.932;2023-04-12T02:17:54;6.75;;;1.90;;
74528;SDS011;63009;52.584;5.932;2023-04-12T02:20:21;7.38;;;2.38;;
74528;SDS011;63009;52.584;5.932;2023-04-12T02:22:48;6.68;;;2.05;;
74528;SDS011;63009;52.584;5.932;2023-04-12T02:25:13;8.40;;;2.50;;
74528;SDS011;63009;52.584;5.932;2023-04-12T02:27:39;11.18;;;3.47;;
74528;SDS011;63009;52.584;5.932;2023-04-12T02:30:05;11.00;;;3.73;;
74528;SDS011;63009;52.584;5.932;2023-04-12T02:32:31;7.15;;;2.00;;
74528;SDS011;63009;52.584;5.932;2023-04-12T02:34:56;8.25;;;2.10;;
74528;SDS011;63009;52.584;5.932;2023-04-12T02:37:24;8.25;;;2.33;;
74528;SDS011;63009;52.584;5.932;2023-04-12T02:39:51;6.63;;;1.92;;
74528;SDS011;63009;52.584;5.932;2023-04-12T02:42:18;5.80;;;1.98;;
74528;SDS011;63009;52.584;5.932;2023-04-12T02:44:43;10.67;;;2.30;;
74528;SDS011;63009;52.584;5.932;2023-04-12T02:49:36;8.37;;;1.80;;
74528;SDS011;63009;52.584;5.932;2023-04-12T02:52:02;7.93;;;2.17;;
74528;SDS011;63009;52.584;5.932;2023-04-12T02:54:27;6.55;;;2.05;;
74528;SDS011;63009;52.584;5.932;2023-04-12T02:56:53;8.48;;;2.13;;
74528;SDS011;63009;52.584;5.932;2023-04-12T02:59:19;7.40;;;2.22;;
74528;SDS011;63009;52.584;5.932;2023-04-12T03:01:44;10.70;;;2.60;;
74528;SDS011;63009;52.584;5.932;2023-04-12T03:04:10;7.60;;;2.30;;
74528;SDS011;63009;52.584;5.932;2023-04-12T03:06:35;8.48;;;2.47;;
74528;SDS011;63009;52.584;5.932;2023-04-12T03:09:01;9.40;;;2.77;;
74528;SDS011;63009;52.584;5.932;2023-04-12T03:11:26;7.80;;;2.50;;
74528;SDS011;63009;52.584;5.932;2023-04-12T03:13:51;9.77;;;2.73;;
74528;SDS011;63009;52.584;5.932;2023-04-12T03:16:21;9.02;;;2.30;;
74528;SDS011;63009;52.584;5.932;2023-04-12T03:18:48;9.07;;;2.80;;
74528;SDS011;63009;52.584;5.932;2023-04-12T03:21:15;7.78;;;2.35;;
74528;SDS011;63009;52.584;5.932;2023-04-12T03:23:40;7.47;;;1.95;;
74528;SDS011;63009;52.584;5.932;2023-04-12T03:26:06;8.27;;;2.45;;
74528;SDS011;63009;52.584;5.932;2023-04-12T03:28:31;9.23;;;2.10;;
74528;SDS011;63009;52.584;5.932;2023-04-12T03:30:56;7.23;;;2.40;;
74528;SDS011;63009;52.584;5.932;2023-04-12T03:33:21;10.18;;;2.42;;
74528;SDS011;63009;52.584;5.932;2023-04-12T03:35:47;7.25;;;2.20;;
74528;SDS011;63009;52.584;5.932;2023-04-12T03:38:12;9.53;;;2.00;;
74528;SDS011;63009;52.584;5.932;2023-04-12T03:40:38;7.27;;;2.40;;
74528;SDS011;63009;52.584;5.932;2023-04-12T03:43:03;7.80;;;1.97;;
74528;SDS011;63009;52.584;5.932;2023-04-12T03:45:28;7.20;;;2.47;;
74528;SDS011;63009;52.584;5.932;2023-04-12T03:47:53;9.43;;;2.20;;
74528;SDS011;63009;52.584;5.932;2023-04-12T03:50:19;8.03;;;2.13;;
74528;SDS011;63009;52.584;5.932;2023-04-12T03:52:46;9.65;;;2.10;;
74528;SDS011;63009;52.584;5.932;2023-04-12T03:55:11;7.43;;;1.90;;
74528;SDS011;63009;52.584;5.932;2023-04-12T03:57:37;6.72;;;1.90;;
74528;SDS011;63009;52.584;5.932;2023-04-12T04:00:03;7.97;;;2.15;;
74528;SDS011;63009;52.584;5.932;2023-04-12T04:02:28;7.97;;;1.90;;
74528;SDS011;63009;52.584;5.932;2023-04-12T04:04:55;7.28;;;1.92;;
74528;SDS011;63009;52.584;5.932;2023-04-12T04:07:21;8.32;;;2.70;;
74528;SDS011;63009;52.584;5.932;2023-04-12T04:09:46;7.90;;;2.33;;
74528;SDS011;63009;52.584;5.932;2023-04-12T04:12:12;7.35;;;2.55;;
74528;SDS011;63009;52.584;5.932;2023-04-12T04:14:37;5.53;;;1.77;;
74528;SDS011;63009;52.584;5.932;2023-04-12T04:17:02;7.67;;;2.50;;
74528;SDS011;63009;52.584;5.932;2023-04-12T04:19:27;10.73;;;2.23;;
74528;SDS011;63009;52.584;5.932;2023-04-12T04:21:52;9.57;;;2.67;;
74528;SDS011;63009;52.584;5.932;2023-04-12T04:24:20;8.38;;;2.35;;
74528;SDS011;63009;52.584;5.932;2023-04-12T04:26:46;9.93;;;1.95;;
74528;SDS011;63009;52.584;5.932;2023-04-12T04:29:11;10.23;;;2.28;;
74528;SDS011;63009;52.584;5.932;2023-04-12T04:31:37;7.80;;;2.30;;
74528;SDS011;63009;52.584;5.932;2023-04-12T04:34:02;8.23;;;2.50;;
74528;SDS011;63009;52.584;5.932;2023-04-12T04:36:31;6.95;;;2.08;;
74528;SDS011;63009;52.584;5.932;2023-04-12T04:38:57;10.65;;;2.60;;
74528;SDS011;63009;52.584;5.932;2023-04-12T04:41:23;7.35;;;2.33;;
74528;SDS011;63009;52.584;5.932;2023-04-12T04:43:48;7.70;;;2.17;;
74528;SDS011;63009;52.584;5.932;2023-04-12T04:46:14;8.30;;;2.15;;
74528;SDS011;63009;52.584;5.932;2023-04-12T04:48:41;11.30;;;2.95;;
74528;SDS011;63009;52.584;5.932;2023-04-12T04:51:06;8.00;;;2.08;;
74528;SDS011;63009;52.584;5.932;2023-04-12T04:53:32;11.00;;;3.00;;
74528;SDS011;63009;52.584;5.932;2023-04-12T04:55:57;7.73;;;2.50;;
74528;SDS011;63009;52.584;5.932;2023-04-12T04:58:23;8.35;;;2.35;;
74528;SDS011;63009;52.584;5.932;2023-04-12T05:00:49;8.65;;;2.40;;
74528;SDS011;63009;52.584;5.932;2023-04-12T05:03:15;11.50;;;3.60;;
74528;SDS011;63009;52.584;5.932;2023-04-12T05:05:40;9.40;;;2.88;;
74528;SDS011;63009;52.584;5.932;2023-04-12T05:08:06;7.25;;;2.35;;
74528;SDS011;63009;52.584;5.932;2023-04-12T05:10:31;8.53;;;2.70;;
74528;SDS011;63009;52.584;5.932;2023-04-12T05:12:56;7.75;;;3.08;;
74528;SDS011;63009;52.584;5.932;2023-04-12T05:15:21;8.33;;;2.67;;
74528;SDS011;63009;52.584;5.932;2023-04-12T05:17:47;8.23;;;2.53;;
74528;SDS011;63009;52.584;5.932;2023-04-12T05:20:12;8.27;;;2.83;;
74528;SDS011;63009;52.584;5.932;2023-04-12T05:22:37;12.60;;;3.10;;
74528;SDS011;63009;52.584;5.932;2023-04-12T05:25:03;9.13;;;3.17;;
74528;SDS011;63009;52.584;5.932;2023-04-12T05:27:29;8.90;;;2.83;;
74528;SDS011;63009;52.584;5.932;2023-04-12T05:29:57;8.25;;;3.25;;
74528;SDS011;63009;52.584;5.932;2023-04-12T05:32:23;7.80;;;3.13;;
74528;SDS011;63009;52.584;5.932;2023-04-12T05:34:49;8.95;;;3.50;;
74528;SDS011;63009;52.584;5.932;2023-04-12T05:37:14;9.27;;;3.20;;
74528;SDS011;63009;52.584;5.932;2023-04-12T05:39:39;8.93;;;3.03;;
74528;SDS011;63009;52.584;5.932;2023-04-12T05:42:04;9.50;;;3.58;;
74528;SDS011;63009;52.584;5.932;2023-04-12T05:44:33;8.48;;;3.28;;
74528;SDS011;63009;52.584;5.932;2023-04-12T05:46:59;8.35;;;3.00;;
74528;SDS011;63009;52.584;5.932;2023-04-12T05:49:27;7.30;;;3.03;;
74528;SDS011;63009;52.584;5.932;2023-04-12T05:51:54;8.05;;;3.05;;
74528;SDS011;63009;52.584;5.932;2023-04-12T05:54:19;11.23;;;3.10;;
74528;SDS011;63009;52.584;5.932;2023-04-12T05:56:45;9.23;;;3.33;;
74528;SDS011;63009;52.584;5.932;2023-04-12T05:59:10;7.73;;;3.00;;
74528;SDS011;63009;52.584;5.932;2023-04-12T06:01:36;10.80;;;2.88;;
74528;SDS011;63009;52.584;5.932;2023-04-12T06:04:02;8.40;;;3.10;;
74528;SDS011;63009;52.584;5.932;2023-04-12T06:06:29;8.90;;;3.70;;
74528;SDS011;63009;52.584;5.932;2023-04-12T06:08:55;9.05;;;3.22;;
74528;SDS011;63009;52.584;5.932;2023-04-12T06:11:25;7.75;;;3.13;;
74528;SDS011;63009;52.584;5.932;2023-04-12T06:13:50;11.35;;;3.40;;
74528;SDS011;63009;52.584;5.932;2023-04-12T06:16:16;8.53;;;3.23;;
74528;SDS011;63009;52.584;5.932;2023-04-12T06:18:41;8.05;;;2.67;;
74528;SDS011;63009;52.584;5.932;2023-04-12T06:21:06;9.07;;;3.20;;
74528;SDS011;63009;52.584;5.932;2023-04-12T06:23:32;8.50;;;2.85;;
74528;SDS011;63009;52.584;5.932;2023-04-12T06:25:57;6.73;;;2.60;;
74528;SDS011;63009;52.584;5.932;2023-04-12T06:28:22;7.63;;;2.97;;
74528;SDS011;63009;52.584;5.932;2023-04-12T06:30:47;7.55;;;2.83;;
74528;SDS011;63009;52.584;5.932;2023-04-12T06:33:13;7.73;;;2.83;;
74528;SDS011;63009;52.584;5.932;2023-04-12T06:35:38;7.90;;;3.05;;
74528;SDS011;63009;52.584;5.932;2023-04-12T06:38:03;8.77;;;3.90;;
74528;SDS011;63009;52.584;5.932;2023-04-12T06:40:28;10.07;;;3.30;;
74528;SDS011;63009;52.584;5.932;2023-04-12T06:42:54;7.22;;;2.70;;
74528;SDS011;63009;52.584;5.932;2023-04-12T06:45:20;10.35;;;3.15;;
74528;SDS011;63009;52.584;5.932;2023-04-12T06:47:45;7.60;;;2.90;;
74528;SDS011;63009;52.584;5.932;2023-04-12T06:50:11;7.35;;;2.97;;
74528;SDS011;63009;52.584;5.932;2023-04-12T06:52:36;7.27;;;2.77;;
74528;SDS011;63009;52.584;5.932;2023-04-12T06:55:01;7.63;;;3.00;;
74528;SDS011;63009;52.584;5.932;2023-04-12T06:57:27;8.60;;;2.85;;
74528;SDS011;63009;52.584;5.932;2023-04-12T06:59:52;7.50;;;3.10;;
74528;SDS011;63009;52.584;5.932;2023-04-12T07:02:17;8.00;;;3.23;;
74528;SDS011;63009;52.584;5.932;2023-04-12T07:04:43;9.57;;;3.78;;
74528;SDS011;63009;52.584;5.932;2023-04-12T07:07:08;7.37;;;2.83;;
74528;SDS011;63009;52.584;5.932;2023-04-12T07:09:34;8.77;;;3.30;;
74528;SDS011;63009;52.584;5.932;2023-04-12T07:11:59;8.02;;;3.30;;
74528;SDS011;63009;52.584;5.932;2023-04-12T07:14:26;8.32;;;3.20;;
74528;SDS011;63009;52.584;5.932;2023-04-12T07:16:51;11.93;;;3.20;;
74528;SDS011;63009;52.584;5.932;2023-04-12T07:19:16;7.00;;;2.90;;
74528;SDS011;63009;52.584;5.932;2023-04-12T07:21:42;9.30;;;3.20;;
74528;SDS011;63009;52.584;5.932;2023-04-12T07:24:07;8.32;;;2.88;;
74528;SDS011;63009;52.584;5.932;2023-04-12T07:26:32;7.38;;;2.92;;
74528;SDS011;63009;52.584;5.932;2023-04-12T07:28:58;9.15;;;2.75;;
74528;SDS011;63009;52.584;5.932;2023-04-12T07:31:23;8.95;;;2.97;;
74528;SDS011;63009;52.584;5.932;2023-04-12T07:33:49;8.35;;;2.78;;
74528;SDS011;63009;52.584;5.932;2023-04-12T07:36:14;7.65;;;3.00;;
74528;SDS011;63009;52.584;5.932;2023-04-12T07:38:40;7.32;;;2.38;;
74528;SDS011;63009;52.584;5.932;2023-04-12T07:41:06;6.70;;;2.40;;
74528;SDS011;63009;52.584;5.932;2023-04-12T07:43:31;7.38;;;3.03;;
74528;SDS011;63009;52.584;5.932;2023-04-12T07:45:57;10.00;;;3.05;;
74528;SDS011;63009;52.584;5.932;2023-04-12T07:48:22;7.40;;;3.30;;
74528;SDS011;63009;52.584;5.932;2023-04-12T07:50:48;6.63;;;2.58;;
74528;SDS011;63009;52.584;5.932;2023-04-12T07:53:20;7.07;;;2.67;;
74528;SDS011;63009;52.584;5.932;2023-04-12T07:55:50;7.25;;;2.63;;
74528;SDS011;63009;52.584;5.932;2023-04-12T07:58:16;8.30;;;2.75;;
74528;SDS011;63009;52.584;5.932;2023-04-12T08:00:43;7.30;;;2.60;;
74528;SDS011;63009;52.584;5.932;2023-04-12T08:03:12;9.60;;;2.85;;
74528;SDS011;63009;52.584;5.932;2023-04-12T08:05:41;7.20;;;2.28;;
74528;SDS011;63009;52.584;5.932;2023-04-12T08:08:08;7.45;;;2.63;;
74528;SDS011;63009;52.584;5.932;2023-04-12T08:10:34;7.45;;;2.92;;
74528;SDS011;63009;52.584;5.932;2023-04-12T08:13:01;7.15;;;2.63;;
74528;SDS011;63009;52.584;5.932;2023-04-12T08:15:29;7.47;;;2.72;;
74528;SDS011;63009;52.584;5.932;2023-04-12T08:17:54;7.63;;;2.58;;
74528;SDS011;63009;52.584;5.932;2023-04-12T08:20:19;7.27;;;2.87;;
74528;SDS011;63009;52.584;5.932;2023-04-12T08:22:45;10.77;;;2.72;;
74528;SDS011;63009;52.584;5.932;2023-04-12T08:25:11;7.35;;;2.58;;
74528;SDS011;63009;52.584;5.932;2023-04-12T08:27:38;7.60;;;2.58;;
74528;SDS011;63009;52.584;5.932;2023-04-12T08:30:05;7.47;;;2.92;;
74528;SDS011;63009;52.584;5.932;2023-04-12T08:32:32;9.45;;;3.10;;
74528;SDS011;63009;52.584;5.932;2023-04-12T08:34:57;8.80;;;2.97;;
74528;SDS011;63009;52.584;5.932;2023-04-12T08:37:22;8.35;;;2.80;;
74528;SDS011;63009;52.584;5.932;2023-04-12T08:39:48;9.65;;;3.53;;
74528;SDS011;63009;52.584;5.932;2023-04-12T08:42:14;9.97;;;3.33;;
74528;SDS011;63009;52.584;5.932;2023-04-12T08:44:40;9.25;;;3.38;;
74528;SDS011;63009;52.584;5.932;2023-04-12T08:47:07;8.57;;;2.83;;
74528;SDS011;63009;52.584;5.932;2023-04-12T08:49:33;16.02;;;3.67;;
74528;SDS011;63009;52.584;5.932;2023-04-12T08:51:59;9.75;;;3.13;;
74528;SDS011;63009;52.584;5.932;2023-04-12T08:54:31;8.63;;;3.38;;
74528;SDS011;63009;52.584;5.932;2023-04-12T08:56:58;8.15;;;3.53;;
74528;SDS011;63009;52.584;5.932;2023-04-12T08:59:26;10.60;;;3.60;;
74528;SDS011;63009;52.584;5.932;2023-04-12T09:01:52;9.77;;;3.40;;
74528;SDS011;63009;52.584;5.932;2023-04-12T09:04:18;11.70;;;3.67;;
74528;SDS011;63009;52.584;5.932;2023-04-12T09:06:43;9.37;;;3.93;;
74528;SDS011;63009;52.584;5.932;2023-04-12T09:09:09;16.77;;;4.47;;
74528;SDS011;63009;52.584;5.932;2023-04-12T09:11:35;11.23;;;3.53;;
74528;SDS011;63009;52.584;5.932;2023-04-12T09:14:00;11.27;;;3.70;;
74528;SDS011;63009;52.584;5.932;2023-04-12T09:16:35;12.53;;;3.50;;
74528;SDS011;63009;52.584;5.932;2023-04-12T09:19:05;12.73;;;3.65;;
74528;SDS011;63009;52.584;5.932;2023-04-12T09:21:33;10.50;;;3.15;;
74528;SDS011;63009;52.584;5.932;2023-04-12T09:24:06;11.45;;;3.85;;
74528;SDS011;63009;52.584;5.932;2023-04-12T09:26:34;15.88;;;3.53;;
74528;SDS011;63009;52.584;5.932;2023-04-12T09:29:00;10.02;;;2.92;;
74528;SDS011;63009;52.584;5.932;2023-04-12T09:31:25;9.77;;;2.83;;
74528;SDS011;63009;52.584;5.932;2023-04-12T09:33:51;11.95;;;3.00;;
74528;SDS011;63009;52.584;5.932;2023-04-12T09:36:16;13.73;;;2.90;;
74528;SDS011;63009;52.584;5.932;2023-04-12T09:38:58;14.85;;;2.85;;
74528;SDS011;63009;52.584;5.932;2023-04-12T09:41:25;10.52;;;2.75;;
74528;SDS011;63009;52.584;5.932;2023-04-12T09:43:52;13.57;;;3.35;;
74528;SDS011;63009;52.584;5.932;2023-04-12T09:46:18;16.30;;;2.40;;
74528;SDS011;63009;52.584;5.932;2023-04-12T09:48:50;14.27;;;3.50;;
74528;SDS011;63009;52.584;5.932;2023-04-12T09:51:30;13.75;;;2.83;;
74528;SDS011;63009;52.584;5.932;2023-04-12T09:56:29;11.30;;;3.47;;
74528;SDS011;63009;52.584;5.932;2023-04-12T09:59:00;11.77;;;2.58;;
74528;SDS011;63009;52.584;5.932;2023-04-12T10:01:28;16.10;;;3.05;;
74528;SDS011;63009;52.584;5.932;2023-04-12T10:03:58;10.93;;;2.45;;
74528;SDS011;63009;52.584;5.932;2023-04-12T10:06:24;12.38;;;2.78;;
74528;SDS011;63009;52.584;5.932;2023-04-12T10:08:50;10.65;;;3.38;;
74528;SDS011;63009;52.584;5.932;2023-04-12T10:11:16;8.98;;;2.50;;
74528;SDS011;63009;52.584;5.932;2023-04-12T10:13:41;13.65;;;3.28;;
74528;SDS011;63009;52.584;5.932;2023-04-12T10:16:07;8.35;;;2.47;;
74528;SDS011;63009;52.584;5.932;2023-04-12T10:18:34;12.10;;;2.60;;
74528;SDS011;63009;52.584;5.932;2023-04-12T10:21:01;11.85;;;2.60;;
74528;SDS011;63009;52.584;5.932;2023-04-12T10:23:27;7.70;;;2.55;;
74528;SDS011;63009;52.584;5.932;2023-04-12T10:25:55;12.10;;;3.25;;
74528;SDS011;63009;52.584;5.932;2023-04-12T10:28:21;15.60;;;2.70;;
74528;SDS011;63009;52.584;5.932;2023-04-12T10:30:47;13.82;;;2.03;;
74528;SDS011;63009;52.584;5.932;2023-04-12T10:33:14;12.60;;;2.05;;
74528;SDS011;63009;52.584;5.932;2023-04-12T10:38:46;8.82;;;2.67;;
74528;SDS011;63009;52.584;5.932;2023-04-12T10:41:13;10.20;;;2.80;;
74528;SDS011;63009;52.584;5.932;2023-04-12T10:43:41;9.05;;;2.15;;
74528;SDS011;63009;52.584;5.932;2023-04-12T10:49:08;13.02;;;2.40;;
74528;SDS011;63009;52.584;5.932;2023-04-12T10:56:49;13.13;;;1.90;;
74528;SDS011;63009;52.584;5.932;2023-04-12T10:59:15;14.07;;;3.05;;
74528;SDS011;63009;52.584;5.932;2023-04-12T11:01:41;11.25;;;2.28;;
74528;SDS011;63009;52.584;5.932;2023-04-12T11:04:26;10.77;;;2.30;;
74528;SDS011;63009;52.584;5.932;2023-04-12T11:09:23;9.40;;;1.90;;
74528;SDS011;63009;52.584;5.932;2023-04-12T11:14:29;10.55;;;1.63;;
74528;SDS011;63009;52.584;5.932;2023-04-12T11:19:35;9.43;;;2.08;;
74528;SDS011;63009;52.584;5.932;2023-04-12T11:22:04;10.52;;;2.33;;
74528;SDS011;63009;52.584;5.932;2023-04-12T11:24:30;13.65;;;2.92;;
74528;SDS011;63009;52.584;5.932;2023-04-12T11:26:56;9.40;;;2.25;;
74528;SDS011;63009;52.584;5.932;2023-04-12T11:29:23;7.20;;;1.73;;
74528;SDS011;63009;52.584;5.932;2023-04-12T11:31:49;10.75;;;1.80;;
74528;SDS011;63009;52.584;5.932;2023-04-12T11:34:16;9.43;;;1.85;;
74528;SDS011;63009;52.584;5.932;2023-04-12T11:36:42;14.35;;;1.90;;
74528;SDS011;63009;52.584;5.932;2023-04-12T11:39:09;9.27;;;2.38;;
74528;SDS011;63009;52.584;5.932;2023-04-12T11:41:34;11.60;;;1.88;;
74528;SDS011;63009;52.584;5.932;2023-04-12T11:44:00;10.85;;;2.00;;
74528;SDS011;63009;52.584;5.932;2023-04-12T11:46:25;10.80;;;1.73;;
74528;SDS011;63009;52.584;5.932;2023-04-12T11:48:57;6.70;;;1.85;;
74528;SDS011;63009;52.584;5.932;2023-04-12T11:51:23;9.75;;;1.88;;
74528;SDS011;63009;52.584;5.932;2023-04-12T11:53:52;10.50;;;1.38;;
74528;SDS011;63009;52.584;5.932;2023-04-12T11:56:18;8.25;;;1.65;;
74528;SDS011;63009;52.584;5.932;2023-04-12T11:58:45;9.80;;;2.10;;
74528;SDS011;63009;52.584;5.932;2023-04-12T12:03:37;9.25;;;1.42;;
74528;SDS011;63009;52.584;5.932;2023-04-12T12:06:03;10.55;;;2.17;;
74528;SDS011;63009;52.584;5.932;2023-04-12T12:08:29;8.65;;;1.85;;
74528;SDS011;63009;52.584;5.932;2023-04-12T12:10:55;12.15;;;2.47;;
74528;SDS011;63009;52.584;5.932;2023-04-12T12:13:20;12.65;;;2.42;;
74528;SDS011;63009;52.584;5.932;2023-04-12T12:15:45;10.00;;;1.70;;
74528;SDS011;63009;52.584;5.932;2023-04-12T12:18:11;11.35;;;2.00;;
74528;SDS011;63009;52.584;5.932;2023-04-12T12:20:40;11.25;;;2.33;;
74528;SDS011;63009;52.584;5.932;2023-04-12T12:23:06;10.32;;;2.00;;
74528;SDS011;63009;52.584;5.932;2023-04-12T12:25:31;12.48;;;2.25;;
74528;SDS011;63009;52.584;5.932;2023-04-12T12:27:57;9.98;;;1.95;;
74528;SDS011;63009;52.584;5.932;2023-04-12T12:30:23;7.47;;;1.83;;
74528;SDS011;63009;52.584;5.932;2023-04-12T12:32:49;13.18;;;2.47;;
74528;SDS011;63009;52.584;5.932;2023-04-12T12:35:15;9.48;;;1.63;;
74528;SDS011;63009;52.584;5.932;2023-04-12T12:37:50;15.23;;;3.17;;
74528;SDS011;63009;52.584;5.932;2023-04-12T12:40:17;15.63;;;3.25;;
74528;SDS011;63009;52.584;5.932;2023-04-12T12:45:19;13.32;;;2.35;;
74528;SDS011;63009;52.584;5.932;2023-04-12T12:50:24;9.80;;;1.60;;
74528;SDS011;63009;52.584;5.932;2023-04-12T12:52:51;12.73;;;1.85;;
74528;SDS011;63009;52.584;5.932;2023-04-12T12:55:17;7.93;;;1.38;;
74528;SDS011;63009;52.584;5.932;2023-04-12T12:57:45;10.40;;;2.00;;
74528;SDS011;63009;52.584;5.932;2023-04-12T13:00:11;8.00;;;1.67;;
74528;SDS011;63009;52.584;5.932;2023-04-12T13:02:39;12.80;;;2.08;;
74528;SDS011;63009;52.584;5.932;2023-04-12T13:05:07;11.73;;;1.95;;
74528;SDS011;63009;52.584;5.932;2023-04-12T13:07:33;11.10;;;1.90;;
74528;SDS011;63009;52.584;5.932;2023-04-12T13:09:59;9.80;;;2.20;;
74528;SDS011;63009;52.584;5.932;2023-04-12T13:12:25;7.75;;;1.60;;
74528;SDS011;63009;52.584;5.932;2023-04-12T13:14:51;10.15;;;2.05;;
74528;SDS011;63009;52.584;5.932;2023-04-12T13:17:16;6.45;;;1.48;;
74528;SDS011;63009;52.584;5.932;2023-04-12T13:19:43;8.90;;;1.67;;
74528;SDS011;63009;52.584;5.932;2023-04-12T13:22:10;7.95;;;2.75;;
74528;SDS011;63009;52.584;5.932;2023-04-12T13:24:35;7.90;;;1.80;;
74528;SDS011;63009;52.584;5.932;2023-04-12T13:27:01;14.27;;;1.83;;
74528;SDS011;63009;52.584;5.932;2023-04-12T13:29:26;10.30;;;1.83;;
74528;SDS011;63009;52.584;5.932;2023-04-12T13:31:52;10.90;;;1.92;;
74528;SDS011;63009;52.584;5.932;2023-04-12T13:34:17;11.10;;;1.97;;
74528;SDS011;63009;52.584;5.932;2023-04-12T13:36:42;8.33;;;2.10;;
74528;SDS011;63009;52.584;5.932;2023-04-12T13:39:08;8.67;;;1.80;;
74528;SDS011;63009;52.584;5.932;2023-04-12T13:41:33;9.73;;;1.83;;
74528;SDS011;63009;52.584;5.932;2023-04-12T13:43:59;11.07;;;2.90;;
74528;SDS011;63009;52.584;5.932;2023-04-12T13:46:25;8.85;;;2.40;;
74528;SDS011;63009;52.584;5.932;2023-04-12T13:48:50;7.85;;;1.95;;
74528;SDS011;63009;52.584;5.932;2023-04-12T13:51:16;8.48;;;1.83;;
74528;SDS011;63009;52.584;5.932;2023-04-12T13:53:41;8.60;;;1.80;;
74528;SDS011;63009;52.584;5.932;2023-04-12T13:56:07;10.25;;;2.35;;
74528;SDS011;63009;52.584;5.932;2023-04-12T13:58:32;7.65;;;1.80;;
74528;SDS011;63009;52.584;5.932;2023-04-12T14:00:58;8.83;;;2.47;;
74528;SDS011;63009;52.584;5.932;2023-04-12T14:03:24;11.95;;;2.20;;
74528;SDS011;63009;52.584;5.932;2023-04-12T14:05:50;8.70;;;1.98;;
74528;SDS011;63009;52.584;5.932;2023-04-12T14:08:16;7.72;;;2.10;;
74528;SDS011;63009;52.584;5.932;2023-04-12T14:10:41;9.97;;;3.03;;
74528;SDS011;63009;52.584;5.932;2023-04-12T14:13:06;11.00;;;2.73;;
74528;SDS011;63009;52.584;5.932;2023-04-12T14:15:32;6.97;;;1.70;;
74528;SDS011;63009;52.584;5.932;2023-04-12T14:17:57;9.53;;;1.80;;
74528;SDS011;63009;52.584;5.932;2023-04-12T14:20:22;7.27;;;1.70;;
74528;SDS011;63009;52.584;5.932;2023-04-12T14:22:48;8.67;;;2.00;;
74528;SDS011;63009;52.584;5.932;2023-04-12T14:25:13;8.25;;;2.00;;
74528;SDS011;63009;52.584;5.932;2023-04-12T14:27:39;10.50;;;2.40;;
74528;SDS011;63009;52.584;5.932;2023-04-12T14:30:04;8.77;;;1.57;;
74528;SDS011;63009;52.584;5.932;2023-04-12T14:32:31;13.45;;;1.90;;
74528;SDS011;63009;52.584;5.932;2023-04-12T14:34:56;9.30;;;2.03;;
74528;SDS011;63009;52.584;5.932;2023-04-12T14:37:21;7.27;;;2.30;;
74528;SDS011;63009;52.584;5.932;2023-04-12T14:39:47;8.97;;;1.80;;
74528;SDS011;63009;52.584;5.932;2023-04-12T14:42:12;7.00;;;1.55;;
74528;SDS011;63009;52.584;5.932;2023-04-12T14:44:38;10.67;;;2.10;;
74528;SDS011;63009;52.584;5.932;2023-04-12T14:47:03;11.43;;;1.93;;
74528;SDS011;63009;52.584;5.932;2023-04-12T14:49:28;8.43;;;2.40;;
74528;SDS011;63009;52.584;5.932;2023-04-12T14:51:55;12.13;;;2.25;;
74528;SDS011;63009;52.584;5.932;2023-04-12T14:54:21;10.85;;;1.95;;
74528;SDS011;63009;52.584;5.932;2023-04-12T14:56:46;8.25;;;2.45;;
74528;SDS011;63009;52.584;5.932;2023-04-12T14:59:11;9.87;;;1.80;;
74528;SDS011;63009;52.584;5.932;2023-04-12T15:01:37;7.55;;;1.20;;
74528;SDS011;63009;52.584;5.932;2023-04-12T15:04:03;5.10;;;1.00;;
74528;SDS011;63009;52.584;5.932;2023-04-12T15:06:30;5.18;;;0.90;;
74528;SDS011;63009;52.584;5.932;2023-04-12T15:08:58;3.33;;;0.82;;
74528;SDS011;63009;52.584;5.932;2023-04-12T15:11:24;5.00;;;0.75;;
74528;SDS011;63009;52.584;5.932;2023-04-12T15:13:53;3.72;;;0.60;;
74528;SDS011;63009;52.584;5.932;2023-04-12T15:16:18;3.83;;;0.82;;
74528;SDS011;63009;52.584;5.932;2023-04-12T15:18:44;2.58;;;0.57;;
74528;SDS011;63009;52.584;5.932;2023-04-12T15:21:10;6.57;;;1.00;;